Time;durP1;ratioP1;P1;durP2;ratioP2;P2;SDS_P1;SDS_P2;PMS_P1;PMS_P2;Temp;Humidity;BMP_temperature;BMP_pressure;BME280_temperature;BME280_humidity;BME280_pressure;Samples;Min_cycle;Max_cycle;Signal;HPM_P1;HPM_P2
2023/12/23 00:00:09;;;;;;;10.75;0.63;;;6.10;77.60;;;;;;5103527;28;20271;-71
2023/12/23 00:02:36;;;;;;;10.60;1.10;;;6.20;77.70;;;;;;5103367;27;20054;-71
2023/12/23 00:05:03;;;;;;;7.93;1.40;;;6.10;77.50;;;;;;5128201;27;20063;-71
2023/12/23 00:07:30;;;;;;;10.27;0.95;;;6.10;77.40;;;;;;5114457;27;20117;-70
2023/12/23 00:09:57;;;;;;;9.07;1.03;;;6.10;77.40;;;;;;5087867;28;20150;-71
2023/12/23 00:12:24;;;;;;;5.00;0.82;;;6.10;77.30;;;;;;5103897;27;20263;-70
2023/12/23 00:14:51;;;;;;;8.80;1.17;;;6.10;77.30;;;;;;5104807;28;20048;-71
2023/12/23 00:17:19;;;;;;;12.00;1.38;;;6.10;77.00;;;;;;5105539;27;20055;-70
2023/12/23 00:19:46;;;;;;;9.60;0.90;;;6.20;77.10;;;;;;5104992;28;20080;-71
2023/12/23 00:22:13;;;;;;;9.07;1.00;;;6.20;76.90;;;;;;5099776;27;20054;-70
2023/12/23 00:24:40;;;;;;;6.10;1.05;;;6.20;76.70;;;;;;5104883;28;20286;-69
2023/12/23 00:27:07;;;;;;;9.70;1.42;;;6.20;76.70;;;;;;5103549;28;20044;-71
2023/12/23 00:29:34;;;;;;;9.75;1.77;;;6.20;76.40;;;;;;5087454;27;20057;-69
2023/12/23 00:32:01;;;;;;;9.23;1.20;;;6.30;76.40;;;;;;5088565;28;20052;-71
2023/12/23 00:34:30;;;;;;;6.90;0.87;;;6.30;76.20;;;;;;5087608;28;20074;-70
2023/12/23 00:36:57;;;;;;;12.85;2.08;;;6.30;76.00;;;;;;5083446;28;20281;-71
2023/12/23 00:39:24;;;;;;;10.45;1.10;;;6.30;76.00;;;;;;5086839;27;20135;-71
2023/12/23 00:41:51;;;;;;;7.55;1.10;;;6.30;76.20;;;;;;5087053;27;20079;-71
2023/12/23 00:44:18;;;;;;;7.18;0.63;;;6.30;76.20;;;;;;5104140;28;20066;-70
2023/12/23 00:46:45;;;;;;;4.20;0.57;;;6.40;75.90;;;;;;5103954;28;20052;-69
2023/12/23 00:49:12;;;;;;;7.13;0.60;;;6.40;75.80;;;;;;5103568;27;20255;-69
2023/12/23 00:51:40;;;;;;;10.77;1.38;;;6.40;75.80;;;;;;5087613;28;20051;-71
2023/12/23 00:54:07;;;;;;;9.05;1.25;;;6.40;76.00;;;;;;5104036;28;20502;-69
2023/12/23 00:56:34;;;;;;;10.98;1.00;;;6.40;75.70;;;;;;5103171;27;20059;-71
2023/12/23 00:59:02;;;;;;;5.87;0.87;;;6.50;75.60;;;;;;5117136;27;20056;-71
2023/12/23 01:01:29;;;;;;;6.93;0.55;;;6.50;75.70;;;;;;5104297;28;20277;-71
2023/12/23 01:03:56;;;;;;;8.07;0.90;;;6.50;75.70;;;;;;5101695;28;20131;-70
2023/12/23 01:06:23;;;;;;;8.43;1.05;;;6.50;75.70;;;;;;5084075;27;20040;-68
2023/12/23 01:08:51;;;;;;;4.63;0.75;;;6.60;75.60;;;;;;5084449;28;20153;-71
2023/12/23 01:11:18;;;;;;;7.97;0.90;;;6.60;75.90;;;;;;5087241;28;20048;-71
2023/12/23 01:13:45;;;;;;;8.43;0.88;;;6.60;75.90;;;;;;5104275;28;20293;-71
2023/12/23 01:16:12;;;;;;;8.60;0.90;;;6.60;76.30;;;;;;5082945;28;20140;-68
2023/12/23 01:18:40;;;;;;;9.10;1.13;;;6.60;76.30;;;;;;5104767;28;20109;-69
2023/12/23 01:21:07;;;;;;;6.78;0.80;;;6.60;76.40;;;;;;5103819;28;20046;-71
2023/12/23 01:23:34;;;;;;;8.23;1.07;;;6.60;76.50;;;;;;5086225;27;20086;-69
2023/12/23 01:26:02;;;;;;;7.97;0.63;;;6.60;76.30;;;;;;5088840;28;20247;-71
2023/12/23 01:28:29;;;;;;;5.82;0.90;;;6.60;76.50;;;;;;5104982;27;20052;-70
2023/12/23 01:30:56;;;;;;;6.13;0.90;;;6.60;76.20;;;;;;5086643;28;20131;-70
2023/12/23 01:33:23;;;;;;;7.40;0.50;;;6.60;76.20;;;;;;5099864;28;20057;-71
2023/12/23 01:35:50;;;;;;;8.73;0.80;;;6.60;76.00;;;;;;5093122;27;20051;-70
2023/12/23 01:38:17;;;;;;;5.10;0.77;;;6.60;76.30;;;;;;5086589;28;20257;-71
2023/12/23 01:40:44;;;;;;;9.25;0.98;;;6.70;76.00;;;;;;5086523;28;20059;-71
2023/12/23 01:43:12;;;;;;;9.13;1.25;;;6.70;76.20;;;;;;5104902;28;20052;-71
2023/12/23 01:45:39;;;;;;;7.25;1.05;;;6.70;76.30;;;;;;5085998;28;20080;-70
2023/12/23 01:48:07;;;;;;;7.60;0.67;;;6.70;76.50;;;;;;5086268;28;20052;-71
2023/12/23 01:50:34;;;;;;;5.60;0.70;;;6.70;76.50;;;;;;5086870;28;20358;-69
2023/12/23 01:53:02;;;;;;;8.48;1.25;;;6.70;76.50;;;;;;5110162;27;20052;-71
2023/12/23 01:55:31;;;;;;;7.32;0.88;;;6.70;76.60;;;;;;5105848;27;20040;-70
2023/12/23 01:57:58;;;;;;;8.57;0.80;;;6.70;76.80;;;;;;5090114;28;20134;-70
2023/12/23 02:00:26;;;;;;;3.00;0.50;;;6.70;77.00;;;;;;5107077;28;20127;-71
2023/12/23 02:02:54;;;;;;;3.55;0.70;;;6.60;77.10;;;;;;5100023;28;20275;-71
2023/12/23 02:05:21;;;;;;;8.57;0.85;;;6.60;77.30;;;;;;5090343;28;20060;-69
2023/12/23 02:07:49;;;;;;;7.25;0.98;;;6.60;77.50;;;;;;5106618;28;20048;-71
2023/12/23 02:10:16;;;;;;;6.07;0.95;;;6.60;77.60;;;;;;5086578;28;20542;-71
2023/12/23 02:12:56;;;;;;;5.77;0.53;;;6.60;77.50;;;;;;5095685;27;20879;-71
2023/12/23 02:15:24;;;;;;;5.75;0.88;;;6.70;77.70;;;;;;5107047;28;20756;-70
2023/12/23 02:18:00;;;;;;;5.57;0.90;;;6.70;77.90;;;;;;5089000;28;20276;-71
2023/12/23 02:20:27;;;;;;;7.50;1.25;;;6.70;78.10;;;;;;5101903;27;20129;-69
2023/12/23 02:22:56;;;;;;;6.90;0.88;;;6.70;78.00;;;;;;5092239;28;20055;-70
2023/12/23 02:25:23;;;;;;;4.77;0.57;;;6.70;78.10;;;;;;5106244;28;20048;-70
2023/12/23 02:27:52;;;;;;;6.60;0.93;;;6.60;78.40;;;;;;5106890;27;20309;-71
2023/12/23 02:30:21;;;;;;;6.00;1.20;;;6.60;78.80;;;;;;5112893;27;20051;-71
2023/12/23 02:32:49;;;;;;;3.17;0.47;;;6.60;78.80;;;;;;5106906;28;20058;-70
2023/12/23 02:35:16;;;;;;;7.10;1.00;;;6.60;78.90;;;;;;5107095;28;20044;-69
2023/12/23 02:37:42;;;;;;;3.90;0.30;;;6.60;79.00;;;;;;5106920;28;20048;-70
2023/12/23 02:40:13;;;;;;;6.03;0.40;;;6.50;79.50;;;;;;5091469;27;20858;-71
2023/12/23 02:42:40;;;;;;;5.88;0.60;;;6.50;80.00;;;;;;5106993;28;20048;-71
2023/12/23 02:45:08;;;;;;;2.85;0.43;;;6.50;80.10;;;;;;5106666;28;20604;-71
2023/12/23 02:47:35;;;;;;;7.57;0.50;;;6.50;80.60;;;;;;5105067;27;20063;-71
2023/12/23 02:50:02;;;;;;;6.40;0.57;;;6.50;81.00;;;;;;5096958;27;20058;-69
2023/12/23 02:52:29;;;;;;;8.48;0.68;;;6.40;81.30;;;;;;5090162;28;20291;-71
2023/12/23 02:54:56;;;;;;;6.88;0.40;;;6.40;82.00;;;;;;5088502;28;20056;-71
2023/12/23 02:57:24;;;;;;;5.00;0.50;;;6.40;82.20;;;;;;5108793;27;20347;-70
2023/12/23 02:59:51;;;;;;;9.05;1.10;;;6.40;82.50;;;;;;5123040;27;20904;-71
2023/12/23 03:02:18;;;;;;;5.57;1.13;;;6.40;82.90;;;;;;5086703;28;20062;-71
2023/12/23 03:04:45;;;;;;;3.70;0.73;;;6.40;83.40;;;;;;5086088;28;20266;-70
2023/12/23 03:07:12;;;;;;;5.07;0.50;;;6.40;84.00;;;;;;5082336;27;20135;-69
2023/12/23 03:09:40;;;;;;;4.30;0.40;;;6.40;84.00;;;;;;5124998;27;20153;-72
2023/12/23 03:12:08;;;;;;;3.72;0.30;;;6.40;84.20;;;;;;5120807;27;20060;-70
2023/12/23 03:14:36;;;;;;;2.63;0.30;;;6.30;84.80;;;;;;5104492;27;20063;-71
2023/12/23 03:17:04;;;;;;;4.80;0.43;;;6.30;85.50;;;;;;5102488;27;20271;-70
2023/12/23 03:19:30;;;;;;;2.45;0.30;;;6.20;85.70;;;;;;5068608;28;20048;-71
2023/12/23 03:21:58;;;;;;;5.95;0.73;;;6.20;85.90;;;;;;5086141;28;20075;-71
2023/12/23 03:24:25;;;;;;;4.07;0.52;;;6.10;86.00;;;;;;5088617;28;20055;-69
2023/12/23 03:26:52;;;;;;;2.30;0.20;;;6.10;86.20;;;;;;5084078;28;20059;-70
2023/12/23 03:29:19;;;;;;;5.50;0.35;;;6.10;86.70;;;;;;5105604;28;20257;-71
2023/12/23 03:31:46;;;;;;;3.50;0.30;;;6.10;86.50;;;;;;5088633;28;20129;-71
2023/12/23 03:34:13;;;;;;;3.28;0.32;;;6.10;86.70;;;;;;5105621;28;20106;-71
2023/12/23 03:36:40;;;;;;;6.32;0.50;;;6.10;86.80;;;;;;5109643;27;20060;-69
2023/12/23 03:39:07;;;;;;;3.50;0.40;;;6.10;87.10;;;;;;5106604;27;20048;-71
2023/12/23 03:41:34;;;;;;;2.25;0.15;;;6.00;87.10;;;;;;5106604;27;20282;-71
2023/12/23 03:44:01;;;;;;;3.65;0.20;;;6.10;87.40;;;;;;5109505;27;20048;-71
2023/12/23 03:46:28;;;;;;;4.78;0.35;;;6.10;87.50;;;;;;5101170;27;20718;-71
2023/12/23 03:48:57;;;;;;;6.97;0.40;;;6.00;87.50;;;;;;5087938;28;21076;-71
2023/12/23 03:51:24;;;;;;;5.13;0.40;;;6.00;87.30;;;;;;5087387;28;20751;-69
2023/12/23 03:53:51;;;;;;;6.25;0.60;;;6.00;87.30;;;;;;5098079;27;20342;-71
2023/12/23 03:56:18;;;;;;;4.65;0.50;;;6.10;87.30;;;;;;5101727;28;20063;-71
2023/12/23 03:58:45;;;;;;;5.78;0.70;;;6.10;87.30;;;;;;5104859;28;20159;-71
2023/12/23 04:01:15;;;;;;;3.72;0.40;;;6.10;87.40;;;;;;5104555;28;20827;-70
2023/12/23 04:03:43;;;;;;;5.97;0.57;;;6.20;87.30;;;;;;5094800;27;20047;-69
2023/12/23 04:06:12;;;;;;;4.55;0.63;;;6.20;87.30;;;;;;5104774;28;20312;-68
2023/12/23 04:08:41;;;;;;;3.55;0.40;;;6.20;87.30;;;;;;5088053;28;20048;-71
2023/12/23 04:11:08;;;;;;;3.83;0.30;;;6.20;87.30;;;;;;5103443;27;20043;-71
2023/12/23 04:13:35;;;;;;;3.88;0.38;;;6.30;87.40;;;;;;5105382;28;20090;-70
2023/12/23 04:16:04;;;;;;;4.30;0.47;;;6.30;87.50;;;;;;5104666;28;20138;-70
2023/12/23 04:18:31;;;;;;;3.20;0.20;;;6.30;87.50;;;;;;5087177;28;20757;-71
2023/12/23 04:20:58;;;;;;;5.35;0.30;;;6.30;87.60;;;;;;5083953;28;20051;-72
2023/12/23 04:23:26;;;;;;;4.00;0.30;;;6.30;87.50;;;;;;5100957;27;20048;-72
2023/12/23 04:25:53;;;;;;;3.67;0.20;;;6.40;87.50;;;;;;5088159;28;20044;-72
2023/12/23 04:28:24;;;;;;;3.47;0.20;;;6.40;87.30;;;;;;5087216;28;20621;-71
2023/12/23 04:30:54;;;;;;;1.50;0.20;;;6.40;87.30;;;;;;5093071;28;20275;-71
2023/12/23 04:33:22;;;;;;;3.85;0.20;;;6.40;87.20;;;;;;5104782;28;20044;-72
2023/12/23 04:35:50;;;;;;;1.60;0.20;;;6.40;87.20;;;;;;5104956;28;20060;-72
2023/12/23 04:38:17;;;;;;;3.72;0.30;;;6.40;87.10;;;;;;5121328;27;20442;-72
2023/12/23 04:40:45;;;;;;;2.70;0.20;;;6.40;87.10;;;;;;5095939;27;20081;-72
2023/12/23 04:43:12;;;;;;;2.33;0.10;;;6.40;87.10;;;;;;5087711;28;20255;-71
2023/12/23 04:45:40;;;;;;;4.15;0.20;;;6.40;87.10;;;;;;5087701;28;20051;-72
2023/12/23 04:48:08;;;;;;;2.92;0.45;;;6.40;87.20;;;;;;5087288;28;20044;-71
2023/12/23 04:50:35;;;;;;;1.92;0.10;;;6.50;87.10;;;;;;5086518;28;20052;-71
2023/12/23 04:53:02;;;;;;;2.63;0.17;;;6.40;87.00;;;;;;5087580;28;20040;-72
2023/12/23 04:55:29;;;;;;;3.00;0.30;;;6.50;87.10;;;;;;5087918;28;20328;-72
2023/12/23 04:57:57;;;;;;;1.95;0.20;;;6.50;87.10;;;;;;5103993;28;20144;-72
2023/12/23 05:00:25;;;;;;;2.05;0.20;;;6.50;87.20;;;;;;5084378;28;20052;-71
2023/12/23 05:02:52;;;;;;;2.58;0.20;;;6.50;87.20;;;;;;5088235;28;20044;-72
2023/12/23 05:05:18;;;;;;;0.97;0.30;;;6.50;87.20;;;;;;5104801;28;20048;-72
2023/12/23 05:07:46;;;;;;;1.65;0.22;;;6.50;87.10;;;;;;5089065;28;20294;-72
2023/12/23 05:10:14;;;;;;;2.17;0.20;;;6.50;87.10;;;;;;5121668;27;20086;-71
2023/12/23 05:12:41;;;;;;;1.52;0.10;;;6.50;87.10;;;;;;5104958;28;20790;-72
2023/12/23 05:15:09;;;;;;;1.70;0.20;;;6.50;87.30;;;;;;5105313;28;20159;-71
2023/12/23 05:17:36;;;;;;;1.70;0.20;;;6.50;87.20;;;;;;5083438;28;20050;-71
2023/12/23 05:20:05;;;;;;;2.08;0.30;;;6.50;87.10;;;;;;5104674;28;20761;-72
2023/12/23 05:22:32;;;;;;;1.38;0.10;;;6.50;87.10;;;;;;5105821;27;20143;-72
2023/12/23 05:24:59;;;;;;;1.42;0.20;;;6.50;87.10;;;;;;5091855;28;20048;-71
2023/12/23 05:27:26;;;;;;;2.38;0.20;;;6.60;87.10;;;;;;5089543;28;20048;-71
2023/12/23 05:29:55;;;;;;;2.17;0.20;;;6.60;87.10;;;;;;5106962;27;20088;-72
2023/12/23 05:32:23;;;;;;;1.10;0.10;;;6.60;87.20;;;;;;5107233;28;20315;-71
2023/12/23 05:34:50;;;;;;;1.98;0.10;;;6.60;87.20;;;;;;5106668;28;20166;-72
2023/12/23 05:37:18;;;;;;;1.35;0.10;;;6.60;87.20;;;;;;5101501;27;20060;-71
2023/12/23 05:39:48;;;;;;;1.80;0.13;;;6.60;87.20;;;;;;5106029;28;20090;-72
2023/12/23 05:42:14;;;;;;;1.37;0.20;;;6.60;88.40;;;;;;5106664;27;20138;-71
2023/12/23 05:44:41;;;;;;;1.98;0.30;;;6.70;88.90;;;;;;5090129;27;20406;-71
2023/12/23 05:47:08;;;;;;;2.13;0.38;;;6.90;90.60;;;;;;5100763;28;20048;-71
2023/12/23 05:49:37;;;;;;;4.43;0.82;;;7.00;91.30;;;;;;5103717;28;20056;-72
2023/12/23 05:52:04;;;;;;;6.78;1.00;;;7.20;92.50;;;;;;5104583;27;20040;-71
2023/12/23 05:54:31;;;;;;;7.67;1.90;;;7.30;93.30;;;;;;5099696;27;20164;-71
2023/12/23 05:56:58;;;;;;;6.05;0.90;;;7.60;94.20;;;;;;5102317;28;20247;-71
2023/12/23 05:59:25;;;;;;;6.40;1.75;;;7.80;94.40;;;;;;5105416;28;20052;-71
2023/12/23 06:01:52;;;;;;;10.70;2.00;;;8.00;94.70;;;;;;5102060;27;20047;-71
2023/12/23 06:04:19;;;;;;;10.00;2.17;;;8.30;94.90;;;;;;5101273;28;20716;-71
2023/12/23 06:06:48;;;;;;;6.67;1.47;;;8.40;94.70;;;;;;5101220;27;20052;-71
2023/12/23 06:09:15;;;;;;;8.13;2.00;;;8.50;94.40;;;;;;5096578;27;20813;-71
2023/12/23 06:11:41;;;;;;;10.73;1.70;;;8.60;94.30;;;;;;5100698;28;20059;-71
2023/12/23 06:14:08;;;;;;;11.15;2.33;;;8.60;94.00;;;;;;5101629;27;20051;-70
2023/12/23 06:16:39;;;;;;;9.95;1.80;;;8.70;93.70;;;;;;5100909;27;20155;-70
2023/12/23 06:19:06;;;;;;;8.03;1.60;;;8.80;93.40;;;;;;5102767;27;20062;-71
2023/12/23 06:21:33;;;;;;;9.20;1.95;;;8.80;93.20;;;;;;5099726;28;20376;-71
2023/12/23 06:24:02;;;;;;;7.93;1.90;;;8.90;93.00;;;;;;5104759;28;20044;-71
2023/12/23 06:26:29;;;;;;;12.85;2.38;;;8.90;92.80;;;;;;5104650;27;21011;-71
2023/12/23 06:28:56;;;;;;;10.05;1.77;;;9.00;92.50;;;;;;5103862;28;20052;-71
2023/12/23 06:31:23;;;;;;;9.43;1.73;;;9.00;92.40;;;;;;5090884;27;20079;-71
2023/12/23 06:33:50;;;;;;;8.50;2.00;;;9.00;92.30;;;;;;5106027;27;20302;-71
2023/12/23 06:36:16;;;;;;;10.65;1.60;;;9.00;92.20;;;;;;5104340;27;20049;-71
2023/12/23 06:38:43;;;;;;;11.90;2.50;;;9.00;92.20;;;;;;5104721;28;20052;-71
2023/12/23 06:41:12;;;;;;;13.93;2.22;;;9.10;92.00;;;;;;5102233;27;20052;-71
2023/12/23 06:43:39;;;;;;;17.30;3.07;;;9.20;91.80;;;;;;5105625;27;20116;-71
2023/12/23 06:46:06;;;;;;;15.07;3.30;;;9.20;91.80;;;;;;5102689;27;20257;-71
2023/12/23 06:48:33;;;;;;;16.75;2.72;;;9.20;91.80;;;;;;5103410;27;20062;-71
2023/12/23 06:51:00;;;;;;;10.50;1.95;;;9.20;91.60;;;;;;5100682;27;20052;-71
2023/12/23 06:53:27;;;;;;;15.60;3.13;;;9.20;91.40;;;;;;5104686;27;20521;-71
2023/12/23 06:55:54;;;;;;;16.60;3.37;;;9.30;91.20;;;;;;5107808;27;20048;-71
2023/12/23 06:58:25;;;;;;;9.93;2.55;;;9.40;91.20;;;;;;5104042;27;20274;-71
2023/12/23 07:00:52;;;;;;;11.00;2.30;;;9.30;91.10;;;;;;5105111;27;20542;-71
2023/12/23 07:03:19;;;;;;;11.90;3.13;;;9.30;91.20;;;;;;5104191;28;20159;-71
2023/12/23 07:05:46;;;;;;;14.10;2.75;;;9.40;91.10;;;;;;5102466;27;20075;-71
2023/12/23 07:08:13;;;;;;;12.17;1.97;;;9.40;91.20;;;;;;5102662;28;20052;-73
2023/12/23 07:10:40;;;;;;;14.90;3.67;;;9.40;91.20;;;;;;5101587;27;20460;-72
2023/12/23 07:13:08;;;;;;;16.33;3.15;;;9.40;91.30;;;;;;5103064;27;20580;-72
2023/12/23 07:15:39;;;;;;;17.08;3.22;;;9.40;91.30;;;;;;5051074;27;20748;-72
2023/12/23 07:18:06;;;;;;;13.52;2.88;;;9.40;91.20;;;;;;5096189;28;20048;-73
2023/12/23 07:20:39;;;;;;;12.83;2.13;;;9.40;91.20;;;;;;5099115;28;20058;-72
2023/12/23 07:23:05;;;;;;;15.02;2.83;;;9.40;91.10;;;;;;5100018;28;20369;-72
2023/12/23 07:25:32;;;;;;;12.13;2.75;;;9.40;91.20;;;;;;5099495;28;20044;-72
2023/12/23 07:27:59;;;;;;;13.50;2.45;;;9.40;91.20;;;;;;5097426;27;20101;-74
2023/12/23 07:30:26;;;;;;;15.90;3.03;;;9.40;91.20;;;;;;5102276;28;20098;-72
2023/12/23 07:32:55;;;;;;;14.47;2.73;;;9.40;91.10;;;;;;5103024;28;20089;-72
2023/12/23 07:35:21;;;;;;;8.98;1.85;;;9.40;91.00;;;;;;5089171;28;20260;-73
2023/12/23 07:37:48;;;;;;;12.77;3.17;;;9.40;91.00;;;;;;5099316;27;20052;-73
2023/12/23 07:40:16;;;;;;;13.95;2.75;;;9.40;91.20;;;;;;5102184;27;20046;-71
2023/12/23 07:42:43;;;;;;;11.82;2.35;;;9.40;91.20;;;;;;5099714;28;20994;-73
2023/12/23 07:45:11;;;;;;;9.67;1.73;;;9.40;91.20;;;;;;5097065;28;20052;-74
2023/12/23 07:47:38;;;;;;;12.50;2.75;;;9.40;91.10;;;;;;5076423;28;20301;-73
2023/12/23 07:50:07;;;;;;;12.85;2.33;;;9.40;91.00;;;;;;5098372;27;20052;-72
2023/12/23 07:52:34;;;;;;;10.85;2.55;;;9.40;90.90;;;;;;5097086;28;20058;-74
2023/12/23 07:55:01;;;;;;;10.80;2.17;;;9.50;90.90;;;;;;5095914;27;20048;-78
2023/12/23 07:57:28;;;;;;;14.80;2.73;;;9.50;90.90;;;;;;5101398;28;20062;-74
2023/12/23 07:59:55;;;;;;;14.20;2.70;;;9.50;90.80;;;;;;5084744;28;20274;-75
2023/12/23 08:02:22;;;;;;;7.85;1.85;;;9.40;90.90;;;;;;5101038;28;20064;-72
2023/12/23 08:04:49;;;;;;;12.15;2.30;;;9.50;91.00;;;;;;5113326;27;20138;-78
2023/12/23 08:07:17;;;;;;;12.20;2.33;;;9.50;91.00;;;;;;5117217;27;20058;-76
2023/12/23 08:09:44;;;;;;;16.67;1.93;;;9.50;91.00;;;;;;5098079;27;20048;-75
2023/12/23 08:12:11;;;;;;;14.98;2.10;;;9.40;91.10;;;;;;5097527;27;20275;-73
2023/12/23 08:14:39;;;;;;;9.95;1.30;;;9.40;91.10;;;;;;5101392;28;20078;-74
2023/12/23 08:17:06;;;;;;;2.83;0.50;;;9.40;90.70;;;;;;5084005;28;20060;-71
2023/12/23 08:19:33;;;;;;;3.33;0.30;;;9.40;90.70;;;;;;5102436;28;20055;-73
2023/12/23 08:22:00;;;;;;;9.50;1.80;;;9.40;90.40;;;;;;5099108;28;20056;-73
2023/12/23 08:24:29;;;;;;;13.00;1.67;;;9.30;89.60;;;;;;5108651;27;20333;-73
2023/12/23 08:26:56;;;;;;;4.22;0.47;;;9.40;90.30;;;;;;5098935;27;20064;-80
2023/12/23 08:29:24;;;;;;;3.13;0.30;;;9.30;90.30;;;;;;5083609;28;20111;-77
2023/12/23 08:31:51;;;;;;;3.72;0.70;;;9.30;90.20;;;;;;5099505;28;20074;-78
2023/12/23 08:34:18;;;;;;;1.83;0.30;;;9.20;89.80;;;;;;5098381;28;20049;-76
2023/12/23 08:36:46;;;;;;;4.45;0.38;;;9.20;89.10;;;;;;5098486;28;20887;-71
2023/12/23 08:39:13;;;;;;;3.08;0.20;;;9.20;89.20;;;;;;5099322;28;20045;-76
2023/12/23 08:41:41;;;;;;;1.98;0.20;;;9.20;89.30;;;;;;5101248;28;20530;-73
2023/12/23 08:44:08;;;;;;;2.72;0.30;;;9.20;89.40;;;;;;5122419;27;20522;-78
2023/12/23 08:46:36;;;;;;;1.73;0.20;;;9.20;89.30;;;;;;5120420;27;20753;-73
2023/12/23 08:49:03;;;;;;;2.45;0.32;;;9.20;89.20;;;;;;5103429;27;20258;-74
2023/12/23 08:51:31;;;;;;;0.70;0.20;;;9.20;89.30;;;;;;5099524;27;20052;-70
2023/12/23 08:53:58;;;;;;;1.27;0.10;;;9.20;89.30;;;;;;5099111;28;20131;-73
2023/12/23 08:56:25;;;;;;;1.40;0.15;;;9.20;89.00;;;;;;5094035;28;20036;-73
2023/12/23 08:58:54;;;;;;;0.60;0.10;;;9.20;88.70;;;;;;5097726;28;20052;-75
2023/12/23 09:01:22;;;;;;;1.70;0.20;;;9.20;88.50;;;;;;5093181;27;20810;-72
2023/12/23 09:03:49;;;;;;;1.05;0.10;;;9.10;88.50;;;;;;5094699;28;20044;-73
2023/12/23 09:06:17;;;;;;;0.47;0.10;;;9.00;88.20;;;;;;5100475;27;20044;-74
2023/12/23 09:08:44;;;;;;;1.00;0.10;;;9.00;88.10;;;;;;5087425;28;20176;-74
2023/12/23 09:11:11;;;;;;;1.13;0.20;;;9.00;87.90;;;;;;5096935;27;20055;-74
2023/12/23 09:13:38;;;;;;;1.65;0.10;;;9.00;87.90;;;;;;5102291;28;20262;-74
2023/12/23 09:16:07;;;;;;;0.75;0.10;;;8.90;87.50;;;;;;5101830;28;20052;-75
2023/12/23 09:18:33;;;;;;;2.03;0.20;;;8.90;87.50;;;;;;5102971;27;21160;-75
2023/12/23 09:21:00;;;;;;;1.40;0.20;;;8.90;87.20;;;;;;5094075;27;20076;-75
2023/12/23 09:23:27;;;;;;;1.63;0.10;;;8.80;87.00;;;;;;5101615;28;20044;-74
2023/12/23 09:25:54;;;;;;;2.13;0.20;;;8.80;87.20;;;;;;5100312;28;20286;-74
2023/12/23 09:28:21;;;;;;;1.35;0.10;;;8.80;87.10;;;;;;5098980;27;20063;-73
2023/12/23 09:30:48;;;;;;;1.80;0.20;;;8.80;87.10;;;;;;5097830;27;20048;-74
2023/12/23 09:33:17;;;;;;;1.60;0.40;;;8.80;86.90;;;;;;5097787;27;20054;-74
2023/12/23 09:35:44;;;;;;;2.40;0.30;;;8.80;86.70;;;;;;5096179;28;20166;-74
2023/12/23 09:38:13;;;;;;;2.92;0.30;;;8.70;86.20;;;;;;5097710;27;20842;-75
2023/12/23 09:40:40;;;;;;;1.33;0.20;;;8.60;85.90;;;;;;5103482;27;20052;-74
2023/12/23 09:43:08;;;;;;;2.22;0.40;;;8.60;85.90;;;;;;5081024;28;20060;-74
2023/12/23 09:45:37;;;;;;;2.55;0.30;;;8.60;85.70;;;;;;5098600;28;20062;-75
2023/12/23 09:48:05;;;;;;;3.40;0.30;;;8.60;86.10;;;;;;5108340;27;20062;-74
2023/12/23 09:50:34;;;;;;;3.65;0.40;;;8.60;86.30;;;;;;5097782;28;20250;-75
2023/12/23 09:53:01;;;;;;;3.13;0.30;;;8.50;86.10;;;;;;5081111;28;20159;-74
2023/12/23 09:55:29;;;;;;;4.22;0.40;;;8.60;86.00;;;;;;5098382;28;20125;-74
2023/12/23 09:57:56;;;;;;;3.97;0.45;;;8.50;85.70;;;;;;5095204;27;20690;-74
2023/12/23 10:00:24;;;;;;;4.07;0.47;;;8.50;86.00;;;;;;5098222;28;20052;-74
2023/12/23 10:02:51;;;;;;;3.85;0.50;;;8.50;86.10;;;;;;5096868;28;20288;-74
2023/12/23 10:05:18;;;;;;;3.33;0.52;;;8.50;86.30;;;;;;5100867;27;20499;-77
2023/12/23 10:07:46;;;;;;;4.28;0.60;;;8.50;86.20;;;;;;5032514;27;20071;-72
2023/12/23 10:10:13;;;;;;;6.25;1.08;;;8.50;86.30;;;;;;5106803;27;20851;-75
2023/12/23 10:12:39;;;;;;;4.57;1.00;;;8.50;86.20;;;;;;5096765;28;20143;-71
2023/12/23 10:15:06;;;;;;;3.38;0.88;;;8.50;86.40;;;;;;5079584;28;20279;-74
2023/12/23 10:17:33;;;;;;;4.22;0.50;;;8.50;86.30;;;;;;5079709;28;20158;-75
2023/12/23 10:20:01;;;;;;;4.18;0.60;;;8.50;86.10;;;;;;5101481;28;20582;-74
2023/12/23 10:22:29;;;;;;;3.97;0.73;;;8.40;85.80;;;;;;5084186;28;20616;-73
2023/12/23 10:25:00;;;;;;;3.57;0.80;;;8.40;86.00;;;;;;5103241;27;20052;-74
2023/12/23 10:27:29;;;;;;;5.43;0.75;;;8.40;86.10;;;;;;5102999;28;20262;-76
2023/12/23 10:30:00;;;;;;;3.60;0.70;;;8.30;86.80;;;;;;5085947;28;20062;-74
2023/12/23 10:32:28;;;;;;;7.07;0.75;;;8.30;87.20;;;;;;5101447;28;20789;-75
2023/12/23 10:34:59;;;;;;;12.50;2.08;;;8.30;87.50;;;;;;5104854;28;20139;-74
2023/12/23 10:37:27;;;;;;;7.73;1.43;;;8.40;89.70;;;;;;5100278;27;20352;-74
2023/12/23 10:40:01;;;;;;;9.82;1.63;;;8.50;90.30;;;;;;5105407;28;20350;-72
2023/12/23 10:42:29;;;;;;;8.50;1.67;;;8.50;90.30;;;;;;5100987;28;20060;-74
2023/12/23 10:44:59;;;;;;;11.55;1.25;;;8.60;90.70;;;;;;5099204;28;20048;-75
2023/12/23 10:47:28;;;;;;;14.35;2.70;;;8.70;90.60;;;;;;5103039;28;20519;-75
2023/12/23 10:49:57;;;;;;;13.07;1.73;;;8.90;90.30;;;;;;5093657;28;20048;-75
2023/12/23 10:52:25;;;;;;;12.43;1.85;;;9.00;89.90;;;;;;5094541;28;20438;-74
2023/12/23 10:54:52;;;;;;;12.25;2.30;;;9.00;89.50;;;;;;5099789;28;20080;-72
2023/12/23 10:57:22;;;;;;;12.52;2.10;;;9.20;89.00;;;;;;5100572;27;20063;-72
2023/12/23 10:59:49;;;;;;;17.13;3.28;;;9.20;88.70;;;;;;5085886;28;20519;-74
2023/12/23 11:02:23;;;;;;;16.53;2.20;;;9.40;88.40;;;;;;5103184;28;20639;-74
2023/12/23 11:04:53;;;;;;;10.68;2.30;;;9.40;88.20;;;;;;5098472;27;20819;-72
2023/12/23 11:07:24;;;;;;;12.85;1.85;;;9.40;87.80;;;;;;5101093;28;20052;-72
2023/12/23 11:09:53;;;;;;;10.25;1.60;;;9.50;87.60;;;;;;5103624;27;20052;-72
2023/12/23 11:12:22;;;;;;;12.85;2.80;;;9.50;87.30;;;;;;5103964;27;20166;-72
2023/12/23 11:14:49;;;;;;;13.63;1.87;;;9.60;87.30;;;;;;5100821;28;20052;-73
2023/12/23 11:17:23;;;;;;;14.60;1.88;;;9.60;87.30;;;;;;5098717;27;20729;-72
2023/12/23 11:19:50;;;;;;;10.80;2.45;;;9.60;87.30;;;;;;5112487;27;20059;-72
2023/12/23 11:22:22;;;;;;;12.50;2.28;;;9.60;87.20;;;;;;5102301;28;20052;-72
2023/12/23 11:24:49;;;;;;;17.00;2.83;;;9.60;87.10;;;;;;5098394;27;20120;-73
2023/12/23 11:27:31;;;;;;;16.00;3.00;;;9.60;86.80;;;;;;5100235;27;20048;-72
2023/12/23 11:30:03;;;;;;;14.88;2.95;;;9.70;86.90;;;;;;5102884;28;20756;-72
2023/12/23 11:32:36;;;;;;;10.82;2.47;;;9.70;86.60;;;;;;5103138;27;20044;-72
2023/12/23 11:35:05;;;;;;;16.73;3.08;;;9.70;86.70;;;;;;5100013;28;20386;-78
2023/12/23 11:37:48;;;;;;;7.45;1.52;;;9.70;86.70;;;;;;5099265;27;20112;-76
2023/12/23 11:40:16;;;;;;;14.17;2.50;;;9.70;86.50;;;;;;5099632;28;20052;-74
2023/12/23 11:42:45;;;;;;;10.40;1.45;;;9.70;86.60;;;;;;5101066;28;20788;-77
2023/12/23 11:45:12;;;;;;;14.48;2.03;;;9.70;86.80;;;;;;5087390;27;20056;-74
2023/12/23 11:47:39;;;;;;;18.02;3.22;;;9.80;86.80;;;;;;5099313;28;20054;-74
2023/12/23 11:50:07;;;;;;;13.00;2.47;;;9.80;86.80;;;;;;5104377;27;20060;-74
2023/12/23 11:52:34;;;;;;;15.57;2.80;;;9.70;87.00;;;;;;5106127;27;20493;-77
2023/12/23 11:55:02;;;;;;;13.40;2.80;;;9.70;86.90;;;;;;5100414;28;20862;-77
2023/12/23 11:57:29;;;;;;;11.63;2.08;;;9.70;86.80;;;;;;5099374;27;20048;-73
2023/12/23 11:59:58;;;;;;;16.58;3.25;;;9.70;86.80;;;;;;5099488;28;20702;-75
2023/12/23 12:02:25;;;;;;;10.15;2.33;;;9.70;86.30;;;;;;5099064;28;20676;-72
2023/12/23 12:04:53;;;;;;;11.77;2.20;;;9.80;86.10;;;;;;5101854;27;20052;-71
2023/12/23 12:07:21;;;;;;;9.13;1.50;;;9.80;85.90;;;;;;5102467;27;20257;-73
2023/12/23 12:09:48;;;;;;;11.82;2.10;;;9.80;85.60;;;;;;5103853;28;20052;-74
2023/12/23 12:12:15;;;;;;;10.93;1.83;;;9.90;85.40;;;;;;5101849;28;20044;-72
2023/12/23 12:14:42;;;;;;;13.05;1.75;;;10.00;84.90;;;;;;5102020;27;20085;-75
2023/12/23 12:17:10;;;;;;;13.17;1.90;;;10.00;85.00;;;;;;5098841;27;20101;-72
2023/12/23 12:19:37;;;;;;;11.70;1.85;;;10.00;84.80;;;;;;5097914;27;20271;-73
2023/12/23 12:22:05;;;;;;;8.38;1.42;;;10.00;84.60;;;;;;5088719;27;20265;-78
2023/12/23 12:24:33;;;;;;;11.77;2.70;;;10.00;84.50;;;;;;5108259;27;20083;-74
2023/12/23 12:27:00;;;;;;;14.55;2.75;;;10.00;84.00;;;;;;5110193;27;20078;-73
2023/12/23 12:29:27;;;;;;;10.07;2.33;;;10.10;83.90;;;;;;5089398;27;20066;-74
2023/12/23 12:31:57;;;;;;;11.77;1.70;;;10.10;83.90;;;;;;5111116;27;20841;-74
2023/12/23 12:34:25;;;;;;;11.40;1.90;;;10.10;84.00;;;;;;5108003;27;20503;-75
2023/12/23 12:36:52;;;;;;;13.23;2.20;;;10.10;84.00;;;;;;5105925;27;20863;-75
2023/12/23 12:39:20;;;;;;;16.08;2.40;;;10.20;83.50;;;;;;5108123;27;20052;-73
2023/12/23 12:41:48;;;;;;;12.50;2.03;;;10.20;83.60;;;;;;5115767;27;20044;-74
2023/12/23 12:44:15;;;;;;;13.55;1.98;;;10.20;83.50;;;;;;5091924;28;20295;-76
2023/12/23 12:46:44;;;;;;;15.68;2.67;;;10.20;83.60;;;;;;5072925;27;20216;-71
2023/12/23 12:49:12;;;;;;;11.00;2.20;;;10.20;83.80;;;;;;5081260;28;20462;-74
2023/12/23 12:51:40;;;;;;;11.38;2.05;;;10.20;84.00;;;;;;5098195;27;20058;-75
2023/12/23 12:54:08;;;;;;;11.40;2.17;;;10.20;84.20;;;;;;5100805;27;20052;-76